createdAt,value
2019-04-23T00:08:39.701Z,2.17
2019-04-23T00:11:20.521Z,2.37
2019-04-23T00:14:05.621Z,2.62
2019-04-23T00:16:50.917Z,2.70
2019-04-23T00:19:39.715Z,2.20
2019-04-23T00:22:45.154Z,2.50
2019-04-23T00:25:50.982Z,2.12
2019-04-23T00:28:56.371Z,2.37
2019-04-23T00:31:18.554Z,2.25
2019-04-23T00:34:26.898Z,2.35
2019-04-23T00:37:01.581Z,2.53
2019-04-23T00:42:41.593Z,2.67
2019-04-23T00:45:33.077Z,2.70
2019-04-23T00:48:25.322Z,2.47
2019-04-23T00:50:58.475Z,2.85
2019-04-23T00:53:53.502Z,2.50
2019-04-23T00:56:44.608Z,2.72
2019-04-23T00:59:26.907Z,2.60
2019-04-23T01:02:18.322Z,2.50
2019-04-23T01:05:11.831Z,2.17
2019-04-23T01:07:53.036Z,2.73
2019-04-23T01:10:56.547Z,2.65
2019-04-23T01:13:47.568Z,2.57
2019-04-23T01:16:29.914Z,2.45
2019-04-23T01:19:24.434Z,2.20
2019-04-23T01:21:58.009Z,3.00
2019-04-23T01:25:02.952Z,2.83
2019-04-23T01:28:09.111Z,2.22
2019-04-23T01:30:59.142Z,2.57
2019-04-23T01:33:46.732Z,2.80
2019-04-23T01:36:28.387Z,2.70
2019-04-23T01:42:03.967Z,2.53
2019-04-23T01:44:50.890Z,2.77
2019-04-23T01:47:38.607Z,2.50
2019-04-23T01:56:11.429Z,3.02
2019-04-23T02:04:34.839Z,2.87
2019-04-23T02:07:21.782Z,2.95
2019-04-23T02:10:16.601Z,2.83
2019-04-23T02:12:56.844Z,3.03
2019-04-23T02:15:46.228Z,3.40
2019-04-23T02:18:32.223Z,3.77
2019-04-23T02:21:16.939Z,2.90
2019-04-23T02:24:12.698Z,3.02
2019-04-23T02:26:55.539Z,2.95
2019-04-23T02:30:05.920Z,2.93
2019-04-23T02:32:47.568Z,2.53
2019-04-23T02:35:42.773Z,3.20
2019-04-23T02:38:26.846Z,3.17
2019-04-23T02:43:59.233Z,3.40
2019-04-23T02:46:31.234Z,3.00
2019-04-23T02:55:08.353Z,3.57
2019-04-23T03:00:56.849Z,3.50
2019-04-23T03:03:38.426Z,3.70
2019-04-23T03:09:23.741Z,4.43
2019-04-23T03:14:44.078Z,3.80
2019-04-23T03:17:19.453Z,3.47
2019-04-23T03:20:21.868Z,4.33
2019-04-23T03:23:16.052Z,4.80
2019-04-23T03:26:11.017Z,4.07
2019-04-23T03:37:20.142Z,4.27
2019-04-23T03:42:47.679Z,4.77
2019-04-23T03:48:32.295Z,4.37
2019-04-23T03:51:03.400Z,5.42
2019-04-23T03:54:11.083Z,4.93
2019-04-23T03:56:56.803Z,4.57
2019-04-23T04:05:04.059Z,4.80
2019-04-23T04:08:12.118Z,4.77
2019-04-23T04:16:34.313Z,4.97
2019-04-23T04:19:19.930Z,5.03
2019-04-23T04:22:04.773Z,5.50
2019-04-23T04:27:43.407Z,5.60
2019-04-23T04:33:09.803Z,5.67
2019-04-23T04:38:47.400Z,5.37
2019-04-23T04:44:26.403Z,5.07
2019-04-23T04:55:26.593Z,4.87
2019-04-23T04:58:14.601Z,4.97
2019-04-23T05:03:58.235Z,5.62
2019-04-23T05:07:02.585Z,5.00
2019-04-23T05:12:24.155Z,5.50
2019-04-23T05:21:05.664Z,5.60
2019-04-23T05:24:01.408Z,5.30
2019-04-23T05:26:37.581Z,4.87
2019-04-23T05:29:36.298Z,5.27
2019-04-23T05:32:27.179Z,4.77
2019-04-23T05:35:18.716Z,4.73
2019-04-23T05:38:08.868Z,5.93
2019-04-23T05:43:32.330Z,4.97
2019-04-23T05:46:33.049Z,5.47
2019-04-23T05:49:22.638Z,4.40
2019-04-23T05:54:57.521Z,5.03
2019-04-23T05:57:38.967Z,5.03
2019-04-23T06:00:39.542Z,5.42
2019-04-23T06:03:24.887Z,4.78
2019-04-23T06:06:25.135Z,5.27
2019-04-23T06:09:04.019Z,4.53
2019-04-23T06:11:56.995Z,4.80
2019-04-23T06:14:45.760Z,5.23
2019-04-23T06:17:25.091Z,4.70
2019-04-23T06:20:16.960Z,5.37
2019-04-23T06:23:26.790Z,4.83
2019-04-23T06:26:26.381Z,4.43
2019-04-23T06:28:59.100Z,5.03
2019-04-23T06:31:43.982Z,5.03
2019-04-23T06:34:41.630Z,5.33
2019-04-23T06:40:47.509Z,5.05
2019-04-23T06:43:38.754Z,5.17
2019-04-23T06:46:20.023Z,4.67
2019-04-23T06:49:20.619Z,4.47
2019-04-23T06:57:55.264Z,4.58
2019-04-23T07:00:41.210Z,4.37
2019-04-23T07:06:23.662Z,4.78
2019-04-23T07:09:10.631Z,4.30
2019-04-23T07:14:51.441Z,4.47
2019-04-23T07:17:30.983Z,4.50
2019-04-23T07:20:21.527Z,4.53
2019-04-23T07:23:14.150Z,4.17
2019-04-23T07:26:08.174Z,4.40
2019-04-23T07:28:50.380Z,4.70
2019-04-23T07:34:15.776Z,4.80
2019-04-23T07:37:10.096Z,4.63
2019-04-23T07:40:11.289Z,5.05
2019-04-23T07:42:53.021Z,4.33
2019-04-23T07:45:35.051Z,4.00
2019-04-23T07:48:20.831Z,4.00
2019-04-23T07:51:17.191Z,3.95
2019-04-23T07:54:10.967Z,4.17
2019-04-23T07:56:54.133Z,5.10
2019-04-23T08:02:25.922Z,3.90
2019-04-23T08:05:17.972Z,5.08
2019-04-23T08:07:58.991Z,4.42
2019-04-23T08:10:56.585Z,4.43
2019-04-23T08:13:37.521Z,4.97
2019-04-23T08:16:25.947Z,4.50
2019-04-23T08:18:58.985Z,4.33
2019-04-23T08:21:43.869Z,4.72
2019-04-23T08:24:52.108Z,4.15
2019-04-23T08:27:35.013Z,4.53
2019-04-23T08:30:09.750Z,4.22
2019-04-23T08:33:07.363Z,5.08
2019-04-23T08:36:00.284Z,4.55
2019-04-23T08:38:44.241Z,4.97
2019-04-23T08:41:33.782Z,5.05
2019-04-23T08:44:27.329Z,5.70
2019-04-23T08:47:11.853Z,4.40
2019-04-23T08:49:50.777Z,5.22
2019-04-23T08:52:37.001Z,4.58
2019-04-23T08:55:32.533Z,4.53
2019-04-23T08:58:20.560Z,4.58
2019-04-23T09:01:05.153Z,4.22
2019-04-23T09:03:45.811Z,4.95
2019-04-23T09:06:35.023Z,4.92
2019-04-23T09:09:30.839Z,4.95
2019-04-23T09:12:08.266Z,4.53
2019-04-23T09:15:16.507Z,4.58
2019-04-23T09:17:49.877Z,4.78
2019-04-23T09:20:37.742Z,4.35
2019-04-23T09:23:23.895Z,4.47
2019-04-23T09:32:02.343Z,4.28
2019-04-23T09:34:52.662Z,4.97
2019-04-23T09:37:34.684Z,4.42
2019-04-23T09:40:59.317Z,4.50
2019-04-23T09:49:47.314Z,4.60
2019-04-23T09:52:43.034Z,4.92
2019-04-23T09:55:32.735Z,4.80
2019-04-23T09:58:12.199Z,4.87
2019-04-23T10:00:54.344Z,5.12
2019-04-23T10:03:33.960Z,4.50
2019-04-23T10:06:12.352Z,4.62
2019-04-23T10:08:56.459Z,5.28
2019-04-23T10:11:40.828Z,4.17
2019-04-23T10:14:26.512Z,4.53
2019-04-23T10:17:11.474Z,5.08
2019-04-23T10:19:56.312Z,5.03
2019-04-23T10:22:42.225Z,4.80
2019-04-23T10:25:27.862Z,4.60
2019-04-23T10:28:29.842Z,4.22
2019-04-23T10:31:14.743Z,4.35
2019-04-23T10:34:00.117Z,4.50
2019-04-23T10:36:45.237Z,4.37
2019-04-23T10:39:35.788Z,5.45
2019-04-23T10:42:18.358Z,4.10
2019-04-23T10:45:22.622Z,4.37
2019-04-23T10:48:47.672Z,4.67
2019-04-23T10:54:41.339Z,5.20
2019-04-23T10:59:53.923Z,5.20
2019-04-23T11:02:50.645Z,4.33
2019-04-23T11:08:27.487Z,4.90
2019-04-23T11:11:14.592Z,4.60
2019-04-23T11:14:05.366Z,4.58
2019-04-23T11:19:39.974Z,4.28
2019-04-23T11:22:38.971Z,4.70
2019-04-23T11:25:15.114Z,4.50
2019-04-23T11:28:16.204Z,4.00
2019-04-23T11:33:57.442Z,3.98
2019-04-23T11:39:23.386Z,3.98
2019-04-23T11:41:56.421Z,3.90
2019-04-23T11:44:40.078Z,4.12
2019-04-23T11:50:18.906Z,4.25
2019-04-23T11:53:06.777Z,4.05
2019-04-23T11:55:57.353Z,3.83
2019-04-23T11:58:37.653Z,4.08
2019-04-23T12:01:42.965Z,4.37
2019-04-23T12:04:33.157Z,4.17
2019-04-23T12:07:18.979Z,3.92
2019-04-23T12:10:15.279Z,3.80
2019-04-23T12:13:10.415Z,4.03
2019-04-23T12:18:43.288Z,4.35
2019-04-23T12:21:12.848Z,4.50
2019-04-23T12:24:12.244Z,4.08
2019-04-23T12:26:53.892Z,4.10
2019-04-23T12:38:13.986Z,4.17
2019-04-23T12:40:43.181Z,4.20
2019-04-23T12:43:25.752Z,4.12
2019-04-23T12:46:26.028Z,3.92
2019-04-23T12:49:25.573Z,4.30
2019-04-23T12:51:59.506Z,4.05
2019-04-23T12:57:30.770Z,3.85
2019-04-23T13:00:17.273Z,4.17
2019-04-23T13:02:59.377Z,4.25
2019-04-23T13:05:55.487Z,3.85
2019-04-23T13:08:41.513Z,4.28
2019-04-23T13:11:28.271Z,4.10
2019-04-23T13:14:10.551Z,4.17
2019-04-23T13:17:05.534Z,4.25
2019-04-23T13:19:49.720Z,3.92
2019-04-23T13:22:30.781Z,4.05
2019-04-23T13:25:21.703Z,4.75
2019-04-23T13:28:06.570Z,4.15
2019-04-23T13:31:02.368Z,4.53
2019-04-23T13:39:21.233Z,4.67
2019-04-23T13:42:06.290Z,4.20
2019-04-23T13:44:48.451Z,4.50
2019-04-23T13:47:59.674Z,4.72
2019-04-23T13:50:32.704Z,4.80
2019-04-23T13:55:47.131Z,4.30
2019-04-23T14:01:30.897Z,4.53
2019-04-23T14:04:33.404Z,4.65
2019-04-23T14:07:07.507Z,4.55
2019-04-23T14:10:07.913Z,4.42
2019-04-23T14:13:06.534Z,4.45
2019-04-23T14:21:08.174Z,5.00
2019-04-23T14:24:03.460Z,4.65
2019-04-23T14:29:21.534Z,4.85
2019-04-23T14:32:38.464Z,6.45
2019-04-23T14:35:04.775Z,5.70
2019-04-23T14:37:52.177Z,4.40
2019-04-23T14:40:37.455Z,4.15
2019-04-23T14:43:15.006Z,4.03
2019-04-23T14:46:27.061Z,4.12
2019-04-23T14:51:47.753Z,4.35
2019-04-23T14:54:50.396Z,4.47
2019-04-23T14:57:24.611Z,4.58
2019-04-23T15:00:09.489Z,4.70
2019-04-23T15:03:01.603Z,4.87
2019-04-23T15:05:46.100Z,3.62
2019-04-23T15:08:30.190Z,5.00
2019-04-23T15:14:10.144Z,4.35
2019-04-23T15:16:44.856Z,4.40
2019-04-23T15:19:52.345Z,4.22
2019-04-23T15:22:20.267Z,4.28
2019-04-23T15:25:21.586Z,4.17
2019-04-23T15:30:41.996Z,4.42
2019-04-23T15:39:10.483Z,4.75
2019-04-23T15:44:32.134Z,5.12
2019-04-23T15:55:44.422Z,4.30
2019-04-23T15:58:37.246Z,4.83
2019-04-23T16:03:37.634Z,4.72
2019-04-23T16:06:26.350Z,4.60
2019-04-23T16:09:39.908Z,4.95
2019-04-23T16:12:21.635Z,4.95
2019-04-23T16:18:14.708Z,5.22
2019-04-23T16:20:46.677Z,4.55
2019-04-23T16:23:43.956Z,4.37
2019-04-23T16:26:31.906Z,4.83
2019-04-23T16:29:27.781Z,4.72
2019-04-23T16:34:39.378Z,4.22
2019-04-23T16:37:39.581Z,5.08
2019-04-23T16:40:31.635Z,4.50
2019-04-23T16:43:16.303Z,4.37
2019-04-23T16:48:47.854Z,4.72
2019-04-23T16:51:29.727Z,4.37
2019-04-23T16:54:19.592Z,4.80
2019-04-23T17:00:31.557Z,4.75
2019-04-23T17:02:33.694Z,4.30
2019-04-23T17:05:23.679Z,4.90
2019-04-23T17:11:00.078Z,4.70
2019-04-23T17:13:44.728Z,4.65
2019-04-23T17:22:04.319Z,5.85
2019-04-23T17:24:59.511Z,5.03
2019-04-23T17:27:41.248Z,4.90
2019-04-23T17:30:28.134Z,4.75
2019-04-23T17:39:08.551Z,5.17
2019-04-23T17:44:58.552Z,5.62
2019-04-23T17:47:37.680Z,5.90
2019-04-23T17:50:25.121Z,5.20
2019-04-23T17:53:03.430Z,5.67
2019-04-23T17:56:03.712Z,5.53
2019-04-23T17:58:53.861Z,5.08
2019-04-23T18:07:23.279Z,5.08
2019-04-23T18:10:07.034Z,5.00
2019-04-23T18:12:46.926Z,4.70
2019-04-23T18:15:17.691Z,4.95
2019-04-23T18:18:11.715Z,4.95
2019-04-23T18:21:03.462Z,5.05
2019-04-23T18:24:14.879Z,5.40
2019-04-23T18:26:56.905Z,5.42
2019-04-23T18:33:00.169Z,5.40
2019-04-23T18:35:40.457Z,5.30
2019-04-23T18:38:29.146Z,5.12
2019-04-23T18:41:08.355Z,5.25
2019-04-23T18:43:50.956Z,5.70
2019-04-23T18:46:43.559Z,4.83
2019-04-23T18:49:28.212Z,5.70
2019-04-23T18:52:36.361Z,5.90
2019-04-23T18:54:55.668Z,5.55
2019-04-23T18:57:46.899Z,5.65
2019-04-23T19:00:47.460Z,5.20
2019-04-23T19:03:49.639Z,5.50
2019-04-23T19:09:16.188Z,6.12
2019-04-23T19:15:17.345Z,5.67
2019-04-23T19:18:04.219Z,6.53
2019-04-23T19:20:51.722Z,6.05
2019-04-23T19:23:40.669Z,5.78
2019-04-23T19:26:41.649Z,5.37
2019-04-23T19:29:00.523Z,6.03
2019-04-23T19:31:55.277Z,6.55
2019-04-23T19:37:23.396Z,5.90
2019-04-23T19:40:10.551Z,5.83
2019-04-23T19:43:01.088Z,6.25
2019-04-23T19:45:49.781Z,6.53
2019-04-23T19:51:21.321Z,6.03
2019-04-23T20:05:05.537Z,6.90
2019-04-23T20:08:04.147Z,6.70
2019-04-23T20:13:37.691Z,5.97
2019-04-23T20:16:50.291Z,6.05
2019-04-23T20:19:06.917Z,6.28
2019-04-23T20:27:28.779Z,6.75
2019-04-23T20:30:41.649Z,6.62
2019-04-23T20:33:52.408Z,7.03
2019-04-23T20:36:07.175Z,6.20
2019-04-23T20:38:57.794Z,6.45
2019-04-23T20:42:07.578Z,6.60
2019-04-23T20:47:37.143Z,6.90
2019-04-23T20:50:05.541Z,7.03
2019-04-23T20:52:56.382Z,7.35
2019-04-23T20:56:01.954Z,6.78
2019-04-23T20:58:38.842Z,6.65
2019-04-23T21:01:31.359Z,7.00
2019-04-23T21:04:11.331Z,7.33
2019-04-23T21:06:57.676Z,6.42
2019-04-23T21:10:00.216Z,6.85
2019-04-23T21:12:50.071Z,6.97
2019-04-23T21:20:54.776Z,6.87
2019-04-23T21:23:45.721Z,7.35
2019-04-23T21:26:25.179Z,7.00
2019-04-23T21:29:15.235Z,6.20
2019-04-23T21:32:06.813Z,5.95
2019-04-23T21:34:55.677Z,7.12
2019-04-23T21:43:49.782Z,6.80
2019-04-23T21:49:18.063Z,7.33
2019-04-23T21:54:42.908Z,7.03
2019-04-23T21:57:42.087Z,7.00
2019-04-23T22:00:36.314Z,7.05
2019-04-23T22:03:11.802Z,6.87
2019-04-23T22:08:45.892Z,7.85
2019-04-23T22:14:10.305Z,7.40
2019-04-23T22:19:45.587Z,7.62
2019-04-23T22:22:44.062Z,7.95
2019-04-23T22:25:13.063Z,7.25
2019-04-23T22:28:10.355Z,6.75
2019-04-23T22:30:54.704Z,7.95
2019-04-23T22:33:46.962Z,7.00
2019-04-23T22:36:22.313Z,7.62
2019-04-23T22:39:11.607Z,7.28
2019-04-23T22:45:01.062Z,7.97
2019-04-23T22:47:34.757Z,6.78
2019-04-23T22:50:18.577Z,7.75
2019-04-23T22:53:08.130Z,8.98
2019-04-23T22:55:57.396Z,7.00
2019-04-23T22:58:42.722Z,7.35
2019-04-23T23:01:26.343Z,8.25
2019-04-23T23:04:13.667Z,7.33
2019-04-23T23:07:02.847Z,6.72
2019-04-23T23:09:55.210Z,7.45
2019-04-23T23:12:46.699Z,7.65
2019-04-23T23:18:23.235Z,7.78
2019-04-23T23:23:40.255Z,6.62
2019-04-23T23:29:05.735Z,7.55
2019-04-23T23:32:00.233Z,7.97
2019-04-23T23:35:05.881Z,7.87
2019-04-23T23:37:28.084Z,8.03
2019-04-23T23:40:20.404Z,7.00
2019-04-23T23:43:14.067Z,7.65
2019-04-23T23:46:03.606Z,7.78
2019-04-23T23:51:30.844Z,7.22
2019-04-23T23:54:18.207Z,6.83
2019-04-23T23:57:07.016Z,7.83
